sensor_id;sensor_type;location;lat;lon;timestamp;P1;durP1;ratioP1;P2;durP2;ratioP2
21731;SDS011;11028;51.156;17.130;2024-01-10T00:02:25;90.20;;;38.60;;
21731;SDS011;11028;51.156;17.130;2024-01-10T00:09:46;89.82;;;31.52;;
21731;SDS011;11028;51.156;17.130;2024-01-10T00:17:04;50.95;;;20.23;;
21731;SDS011;11028;51.156;17.130;2024-01-10T00:24:22;87.95;;;37.35;;
21731;SDS011;11028;51.156;17.130;2024-01-10T00:31:41;83.15;;;33.95;;
21731;SDS011;11028;51.156;17.130;2024-01-10T00:39:00;104.63;;;35.47;;
21731;SDS011;11028;51.156;17.130;2024-01-10T00:46:19;77.72;;;31.83;;
21731;SDS011;11028;51.156;17.130;2024-01-10T00:53:39;54.90;;;23.98;;
21731;SDS011;11028;51.156;17.130;2024-01-10T01:00:57;70.60;;;29.63;;
21731;SDS011;11028;51.156;17.130;2024-01-10T01:08:16;68.97;;;27.23;;
21731;SDS011;11028;51.156;17.130;2024-01-10T01:15:36;94.90;;;33.72;;
21731;SDS011;11028;51.156;17.130;2024-01-10T01:22:54;67.63;;;28.45;;
21731;SDS011;11028;51.156;17.130;2024-01-10T01:30:12;72.72;;;27.00;;
21731;SDS011;11028;51.156;17.130;2024-01-10T01:37:32;80.18;;;26.70;;
21731;SDS011;11028;51.156;17.130;2024-01-10T01:44:52;66.78;;;27.38;;
21731;SDS011;11028;51.156;17.130;2024-01-10T01:52:11;48.17;;;21.85;;
21731;SDS011;11028;51.156;17.130;2024-01-10T01:59:30;54.00;;;20.63;;
21731;SDS011;11028;51.156;17.130;2024-01-10T02:06:49;56.17;;;21.83;;
21731;SDS011;11028;51.156;17.130;2024-01-10T02:14:07;78.38;;;28.25;;
21731;SDS011;11028;51.156;17.130;2024-01-10T02:21:27;73.65;;;28.13;;
21731;SDS011;11028;51.156;17.130;2024-01-10T02:28:47;60.67;;;20.77;;
21731;SDS011;11028;51.156;17.130;2024-01-10T02:36:06;62.13;;;21.35;;
21731;SDS011;11028;51.156;17.130;2024-01-10T02:43:24;74.45;;;28.92;;
21731;SDS011;11028;51.156;17.130;2024-01-10T02:50:44;52.65;;;21.15;;
21731;SDS011;11028;51.156;17.130;2024-01-10T02:58:02;53.97;;;23.35;;
21731;SDS011;11028;51.156;17.130;2024-01-10T03:05:20;55.45;;;24.45;;
21731;SDS011;11028;51.156;17.130;2024-01-10T03:12:40;95.28;;;26.15;;
21731;SDS011;11028;51.156;17.130;2024-01-10T03:19:58;64.07;;;28.25;;
21731;SDS011;11028;51.156;17.130;2024-01-10T03:27:16;76.47;;;30.88;;
21731;SDS011;11028;51.156;17.130;2024-01-10T03:34:36;43.58;;;22.52;;
21731;SDS011;11028;51.156;17.130;2024-01-10T03:41:55;59.53;;;32.13;;
21731;SDS011;11028;51.156;17.130;2024-01-10T03:49:14;82.18;;;34.53;;
21731;SDS011;11028;51.156;17.130;2024-01-10T03:56:34;51.22;;;26.45;;
21731;SDS011;11028;51.156;17.130;2024-01-10T04:03:53;59.92;;;28.98;;
21731;SDS011;11028;51.156;17.130;2024-01-10T04:11:11;100.45;;;36.60;;
21731;SDS011;11028;51.156;17.130;2024-01-10T04:18:30;57.33;;;28.25;;
21731;SDS011;11028;51.156;17.130;2024-01-10T04:25:49;46.97;;;14.80;;
21731;SDS011;11028;51.156;17.130;2024-01-10T04:33:07;72.60;;;27.48;;
21731;SDS011;11028;51.156;17.130;2024-01-10T04:40:27;90.55;;;31.20;;
21731;SDS011;11028;51.156;17.130;2024-01-10T04:47:45;81.30;;;28.23;;
21731;SDS011;11028;51.156;17.130;2024-01-10T04:55:03;67.93;;;28.27;;
21731;SDS011;11028;51.156;17.130;2024-01-10T05:02:24;67.45;;;27.58;;
21731;SDS011;11028;51.156;17.130;2024-01-10T05:09:43;59.63;;;27.95;;
21731;SDS011;11028;51.156;17.130;2024-01-10T05:17:01;132.68;;;45.30;;
21731;SDS011;11028;51.156;17.130;2024-01-10T05:24:21;59.05;;;26.02;;
21731;SDS011;11028;51.156;17.130;2024-01-10T05:31:39;77.95;;;29.85;;
21731;SDS011;11028;51.156;17.130;2024-01-10T05:38:59;62.42;;;21.83;;
21731;SDS011;11028;51.156;17.130;2024-01-10T05:46:19;80.95;;;32.20;;
21731;SDS011;11028;51.156;17.130;2024-01-10T05:53:37;78.18;;;31.35;;
21731;SDS011;11028;51.156;17.130;2024-01-10T06:00:55;77.65;;;31.30;;
21731;SDS011;11028;51.156;17.130;2024-01-10T06:08:15;60.30;;;25.75;;
21731;SDS011;11028;51.156;17.130;2024-01-10T06:15:34;45.20;;;21.58;;
21731;SDS011;11028;51.156;17.130;2024-01-10T06:22:52;103.05;;;33.08;;
21731;SDS011;11028;51.156;17.130;2024-01-10T06:30:12;27.08;;;16.67;;
21731;SDS011;11028;51.156;17.130;2024-01-10T06:37:30;46.47;;;19.10;;
21731;SDS011;11028;51.156;17.130;2024-01-10T06:44:51;58.17;;;27.52;;
21731;SDS011;11028;51.156;17.130;2024-01-10T06:52:11;52.80;;;24.30;;
21731;SDS011;11028;51.156;17.130;2024-01-10T06:59:29;133.10;;;46.97;;
21731;SDS011;11028;51.156;17.130;2024-01-10T07:06:48;69.50;;;30.60;;
21731;SDS011;11028;51.156;17.130;2024-01-10T07:14:08;53.83;;;25.00;;
21731;SDS011;11028;51.156;17.130;2024-01-10T07:21:27;44.37;;;24.17;;
21731;SDS011;11028;51.156;17.130;2024-01-10T07:28:46;92.10;;;32.88;;
21731;SDS011;11028;51.156;17.130;2024-01-10T07:36:06;72.28;;;28.52;;
21731;SDS011;11028;51.156;17.130;2024-01-10T07:43:25;60.67;;;25.43;;
21731;SDS011;11028;51.156;17.130;2024-01-10T07:50:45;99.07;;;38.05;;
21731;SDS011;11028;51.156;17.130;2024-01-10T07:58:04;96.93;;;37.97;;
21731;SDS011;11028;51.156;17.130;2024-01-10T08:05:24;87.20;;;37.23;;
21731;SDS011;11028;51.156;17.130;2024-01-10T08:12:42;85.63;;;33.97;;
21731;SDS011;11028;51.156;17.130;2024-01-10T08:20:03;112.25;;;44.95;;
21731;SDS011;11028;51.156;17.130;2024-01-10T08:27:22;89.45;;;38.75;;
21731;SDS011;11028;51.156;17.130;2024-01-10T08:34:41;76.68;;;35.90;;
21731;SDS011;11028;51.156;17.130;2024-01-10T08:42:03;114.53;;;43.08;;
21731;SDS011;11028;51.156;17.130;2024-01-10T08:49:22;67.63;;;29.70;;
21731;SDS011;11028;51.156;17.130;2024-01-10T08:56:40;135.52;;;48.47;;
21731;SDS011;11028;51.156;17.130;2024-01-10T09:04:00;122.70;;;41.42;;
21731;SDS011;11028;51.156;17.130;2024-01-10T09:11:18;137.20;;;45.90;;
21731;SDS011;11028;51.156;17.130;2024-01-10T09:18:37;141.40;;;49.78;;
21731;SDS011;11028;51.156;17.130;2024-01-10T09:25:57;115.47;;;44.45;;
21731;SDS011;11028;51.156;17.130;2024-01-10T09:33:15;120.25;;;45.55;;
21731;SDS011;11028;51.156;17.130;2024-01-10T09:40:33;85.18;;;30.25;;
21731;SDS011;11028;51.156;17.130;2024-01-10T09:47:55;129.40;;;44.15;;
21731;SDS011;11028;51.156;17.130;2024-01-10T09:55:15;121.05;;;45.15;;
21731;SDS011;11028;51.156;17.130;2024-01-10T10:02:37;105.90;;;37.13;;
21731;SDS011;11028;51.156;17.130;2024-01-10T10:09:58;119.45;;;40.70;;
21731;SDS011;11028;51.156;17.130;2024-01-10T10:17:17;119.43;;;47.28;;
21731;SDS011;11028;51.156;17.130;2024-01-10T10:24:36;131.55;;;49.05;;
21731;SDS011;11028;51.156;17.130;2024-01-10T10:31:56;87.63;;;34.05;;
21731;SDS011;11028;51.156;17.130;2024-01-10T10:39:15;121.93;;;45.22;;
21731;SDS011;11028;51.156;17.130;2024-01-10T10:46:34;102.65;;;41.05;;
21731;SDS011;11028;51.156;17.130;2024-01-10T10:53:54;108.97;;;43.30;;
21731;SDS011;11028;51.156;17.130;2024-01-10T11:01:14;118.68;;;43.00;;
21731;SDS011;11028;51.156;17.130;2024-01-10T11:08:35;115.28;;;39.58;;
21731;SDS011;11028;51.156;17.130;2024-01-10T11:31:08;120.90;;;45.75;;
21731;SDS011;11028;51.156;17.130;2024-01-10T11:38:27;118.97;;;43.60;;
21731;SDS011;11028;51.156;17.130;2024-01-10T11:45:51;111.28;;;36.85;;
21731;SDS011;11028;51.156;17.130;2024-01-10T11:53:11;127.00;;;46.50;;
21731;SDS011;11028;51.156;17.130;2024-01-10T12:00:29;107.18;;;39.53;;
21731;SDS011;11028;51.156;17.130;2024-01-10T12:07:50;124.88;;;45.50;;
21731;SDS011;11028;51.156;17.130;2024-01-10T12:15:11;122.55;;;47.30;;
21731;SDS011;11028;51.156;17.130;2024-01-10T12:22:30;107.50;;;38.00;;
21731;SDS011;11028;51.156;17.130;2024-01-10T12:29:50;123.55;;;46.03;;
21731;SDS011;11028;51.156;17.130;2024-01-10T12:37:12;111.63;;;43.55;;
21731;SDS011;11028;51.156;17.130;2024-01-10T12:44:30;101.55;;;40.45;;
21731;SDS011;11028;51.156;17.130;2024-01-10T12:59:12;106.88;;;40.63;;
21731;SDS011;11028;51.156;17.130;2024-01-10T13:06:32;110.22;;;42.05;;
21731;SDS011;11028;51.156;17.130;2024-01-10T13:13:50;106.15;;;42.58;;
21731;SDS011;11028;51.156;17.130;2024-01-10T13:21:10;101.15;;;36.50;;
21731;SDS011;11028;51.156;17.130;2024-01-10T13:28:28;105.97;;;38.90;;
21731;SDS011;11028;51.156;17.130;2024-01-10T13:35:47;107.22;;;40.60;;
21731;SDS011;11028;51.156;17.130;2024-01-10T13:43:07;97.85;;;38.85;;
21731;SDS011;11028;51.156;17.130;2024-01-10T13:50:28;109.43;;;39.80;;
21731;SDS011;11028;51.156;17.130;2024-01-10T13:57:47;94.50;;;37.28;;
21731;SDS011;11028;51.156;17.130;2024-01-10T14:05:07;128.00;;;44.67;;
21731;SDS011;11028;51.156;17.130;2024-01-10T14:12:27;118.17;;;41.70;;
21731;SDS011;11028;51.156;17.130;2024-01-10T14:19:47;124.05;;;44.72;;
21731;SDS011;11028;51.156;17.130;2024-01-10T14:27:08;121.88;;;42.35;;
21731;SDS011;11028;51.156;17.130;2024-01-10T14:34:28;125.68;;;42.13;;
21731;SDS011;11028;51.156;17.130;2024-01-10T14:41:48;117.22;;;43.95;;
21731;SDS011;11028;51.156;17.130;2024-01-10T14:49:08;115.78;;;42.65;;
21731;SDS011;11028;51.156;17.130;2024-01-10T14:56:27;114.15;;;41.70;;
21731;SDS011;11028;51.156;17.130;2024-01-10T15:03:45;113.90;;;41.88;;
21731;SDS011;11028;51.156;17.130;2024-01-10T15:11:06;121.10;;;44.55;;
21731;SDS011;11028;51.156;17.130;2024-01-10T15:18:28;127.43;;;43.15;;
21731;SDS011;11028;51.156;17.130;2024-01-10T15:25:46;115.95;;;41.40;;
21731;SDS011;11028;51.156;17.130;2024-01-10T15:33:07;121.30;;;43.25;;
21731;SDS011;11028;51.156;17.130;2024-01-10T15:40:27;120.73;;;41.90;;
21731;SDS011;11028;51.156;17.130;2024-01-10T15:47:46;117.78;;;42.08;;
21731;SDS011;11028;51.156;17.130;2024-01-10T15:55:07;121.45;;;44.67;;
21731;SDS011;11028;51.156;17.130;2024-01-10T16:02:26;132.88;;;44.47;;
21731;SDS011;11028;51.156;17.130;2024-01-10T16:09:47;125.30;;;44.65;;
21731;SDS011;11028;51.156;17.130;2024-01-10T16:17:06;133.40;;;44.05;;
21731;SDS011;11028;51.156;17.130;2024-01-10T16:24:24;161.95;;;57.38;;
21731;SDS011;11028;51.156;17.130;2024-01-10T16:31:43;164.95;;;59.38;;
21731;SDS011;11028;51.156;17.130;2024-01-10T16:39:02;144.80;;;57.28;;
21731;SDS011;11028;51.156;17.130;2024-01-10T16:46:22;150.13;;;54.70;;
21731;SDS011;11028;51.156;17.130;2024-01-10T16:53:41;265.25;;;95.53;;
21731;SDS011;11028;51.156;17.130;2024-01-10T17:01:01;190.63;;;60.28;;
21731;SDS011;11028;51.156;17.130;2024-01-10T17:08:20;177.70;;;59.10;;
21731;SDS011;11028;51.156;17.130;2024-01-10T17:15:41;185.02;;;64.60;;
21731;SDS011;11028;51.156;17.130;2024-01-10T17:23:01;149.32;;;56.20;;
21731;SDS011;11028;51.156;17.130;2024-01-10T17:30:19;187.27;;;65.72;;
21731;SDS011;11028;51.156;17.130;2024-01-10T17:37:37;181.38;;;67.43;;
21731;SDS011;11028;51.156;17.130;2024-01-10T17:44:57;177.65;;;63.33;;
21731;SDS011;11028;51.156;17.130;2024-01-10T17:52:16;146.05;;;56.60;;
21731;SDS011;11028;51.156;17.130;2024-01-10T17:59:34;174.25;;;68.22;;
21731;SDS011;11028;51.156;17.130;2024-01-10T18:06:55;185.45;;;61.85;;
21731;SDS011;11028;51.156;17.130;2024-01-10T18:14:13;191.05;;;68.85;;
21731;SDS011;11028;51.156;17.130;2024-01-10T18:21:31;197.25;;;73.53;;
21731;SDS011;11028;51.156;17.130;2024-01-10T18:28:51;157.88;;;61.05;;
21731;SDS011;11028;51.156;17.130;2024-01-10T18:36:10;174.40;;;65.15;;
21731;SDS011;11028;51.156;17.130;2024-01-10T18:43:28;164.15;;;63.05;;
21731;SDS011;11028;51.156;17.130;2024-01-10T18:50:48;214.98;;;73.57;;
21731;SDS011;11028;51.156;17.130;2024-01-10T18:58:06;191.68;;;66.63;;
21731;SDS011;11028;51.156;17.130;2024-01-10T19:05:27;213.98;;;73.28;;
21731;SDS011;11028;51.156;17.130;2024-01-10T19:12:48;222.20;;;72.28;;
21731;SDS011;11028;51.156;17.130;2024-01-10T19:20:08;198.03;;;75.50;;
21731;SDS011;11028;51.156;17.130;2024-01-10T19:27:29;205.75;;;77.30;;
21731;SDS011;11028;51.156;17.130;2024-01-10T19:34:48;217.18;;;78.93;;
21731;SDS011;11028;51.156;17.130;2024-01-10T19:42:07;209.35;;;74.15;;
21731;SDS011;11028;51.156;17.130;2024-01-10T19:49:25;203.30;;;75.80;;
21731;SDS011;11028;51.156;17.130;2024-01-10T19:56:46;169.05;;;69.43;;
21731;SDS011;11028;51.156;17.130;2024-01-10T20:04:04;192.15;;;72.45;;
21731;SDS011;11028;51.156;17.130;2024-01-10T20:11:22;178.85;;;72.38;;
21731;SDS011;11028;51.156;17.130;2024-01-10T20:18:42;232.48;;;86.20;;
21731;SDS011;11028;51.156;17.130;2024-01-10T20:26:01;206.77;;;84.35;;
21731;SDS011;11028;51.156;17.130;2024-01-10T20:33:20;303.90;;;103.75;;
21731;SDS011;11028;51.156;17.130;2024-01-10T20:40:40;317.27;;;102.28;;
21731;SDS011;11028;51.156;17.130;2024-01-10T20:48:01;323.27;;;115.25;;
21731;SDS011;11028;51.156;17.130;2024-01-10T20:55:23;299.85;;;107.43;;
21731;SDS011;11028;51.156;17.130;2024-01-10T21:02:43;317.60;;;114.65;;
21731;SDS011;11028;51.156;17.130;2024-01-10T21:10:02;321.90;;;108.15;;
21731;SDS011;11028;51.156;17.130;2024-01-10T21:17:20;300.55;;;105.38;;
21731;SDS011;11028;51.156;17.130;2024-01-10T21:24:39;342.30;;;116.50;;
21731;SDS011;11028;51.156;17.130;2024-01-10T21:31:58;299.50;;;115.18;;
21731;SDS011;11028;51.156;17.130;2024-01-10T21:39:17;325.08;;;118.65;;
21731;SDS011;11028;51.156;17.130;2024-01-10T21:46:37;336.30;;;118.13;;
21731;SDS011;11028;51.156;17.130;2024-01-10T21:53:55;317.23;;;118.35;;
21731;SDS011;11028;51.156;17.130;2024-01-10T22:01:14;330.95;;;115.40;;
21731;SDS011;11028;51.156;17.130;2024-01-10T22:08:34;301.58;;;110.43;;
21731;SDS011;11028;51.156;17.130;2024-01-10T22:15:54;340.45;;;119.57;;
21731;SDS011;11028;51.156;17.130;2024-01-10T22:23:13;327.13;;;108.75;;
21731;SDS011;11028;51.156;17.130;2024-01-10T22:30:33;294.83;;;105.00;;
21731;SDS011;11028;51.156;17.130;2024-01-10T22:37:52;365.10;;;118.38;;
21731;SDS011;11028;51.156;17.130;2024-01-10T22:45:12;247.32;;;91.90;;
21731;SDS011;11028;51.156;17.130;2024-01-10T22:52:31;251.43;;;93.95;;
21731;SDS011;11028;51.156;17.130;2024-01-10T22:59:50;229.13;;;86.25;;
21731;SDS011;11028;51.156;17.130;2024-01-10T23:07:08;229.93;;;83.45;;
21731;SDS011;11028;51.156;17.130;2024-01-10T23:14:27;218.70;;;80.28;;
21731;SDS011;11028;51.156;17.130;2024-01-10T23:21:47;230.13;;;82.78;;
21731;SDS011;11028;51.156;17.130;2024-01-10T23:29:05;163.27;;;64.68;;
21731;SDS011;11028;51.156;17.130;2024-01-10T23:36:24;153.88;;;63.97;;
21731;SDS011;11028;51.156;17.130;2024-01-10T23:43:43;135.50;;;51.72;;
21731;SDS011;11028;51.156;17.130;2024-01-10T23:51:01;131.23;;;55.60;;
21731;SDS011;11028;51.156;17.130;2024-01-10T23:58:22;171.27;;;62.47;;
